Time;durP1;ratioP1;P1;durP2;ratioP2;P2;SDS_P1;SDS_P2;PMS_P1;PMS_P2;Temp;Humidity;BMP_temperature;BMP_pressure;BME280_temperature;BME280_humidity;BME280_pressure;Samples;Min_cycle;Max_cycle;Signal;HPM_P1;HPM_P2
2020/12/02 00:02:12;;;;;;;16.23;11.03;;;6.90;99.90;;;;;;4952963;28;20795;-70
2020/12/02 00:04:38;;;;;;;16.50;10.70;;;6.80;99.90;;;;;;4952717;28;20182;-71
2020/12/02 00:07:05;;;;;;;17.20;10.73;;;6.80;99.90;;;;;;4947359;28;20231;-70
2020/12/02 00:09:31;;;;;;;18.17;12.90;;;6.80;99.90;;;;;;4947182;28;20959;-70
2020/12/02 00:11:57;;;;;;;16.77;10.90;;;6.80;99.90;;;;;;4943745;28;20506;-71
2020/12/02 00:14:28;;;;;;;17.80;11.97;;;6.80;99.90;;;;;;4953775;28;21143;-71
2020/12/02 00:16:55;;;;;;;17.40;11.40;;;6.80;99.90;;;;;;4951672;28;20221;-71
2020/12/02 00:19:22;;;;;;;17.97;11.70;;;6.80;99.90;;;;;;4952429;28;20538;-71
2020/12/02 00:22:09;;;;;;;17.70;12.00;;;6.70;99.90;;;;;;4948690;28;20456;-70
2020/12/02 00:24:35;;;;;;;17.70;12.17;;;6.70;99.90;;;;;;4943331;28;20591;-70
2020/12/02 00:27:14;;;;;;;16.73;11.53;;;6.70;99.90;;;;;;4950683;28;20467;-70
2020/12/02 00:29:40;;;;;;;15.97;10.70;;;6.70;99.90;;;;;;4945720;28;20212;-70
2020/12/02 00:32:06;;;;;;;17.43;12.20;;;6.70;99.90;;;;;;4942023;28;20556;-70
2020/12/02 00:34:32;;;;;;;18.47;11.43;;;6.70;99.90;;;;;;4951216;28;20484;-71
2020/12/02 00:36:58;;;;;;;23.43;11.50;;;6.70;99.90;;;;;;4949994;28;20266;-70
2020/12/02 00:39:23;;;;;;;20.63;11.70;;;6.70;99.90;;;;;;4948436;28;20693;-71
2020/12/02 00:41:49;;;;;;;16.77;10.30;;;6.60;99.90;;;;;;4952363;28;20197;-70
2020/12/02 00:44:16;;;;;;;20.00;10.23;;;6.60;99.90;;;;;;4959161;28;20772;-70
2020/12/02 00:46:46;;;;;;;16.87;11.60;;;6.70;99.90;;;;;;4948306;28;20189;-70
2020/12/02 00:49:14;;;;;;;18.93;10.10;;;6.70;99.90;;;;;;4952290;28;20537;-71
2020/12/02 00:51:39;;;;;;;20.37;11.33;;;6.70;99.90;;;;;;4950320;28;20797;-70
2020/12/02 00:54:07;;;;;;;19.57;10.80;;;6.70;99.90;;;;;;4953531;28;20444;-70
2020/12/02 00:56:35;;;;;;;15.17;9.30;;;6.70;99.90;;;;;;4950209;28;20181;-71
2020/12/02 00:59:27;;;;;;;18.23;10.60;;;6.70;99.90;;;;;;4950898;28;20468;-71
2020/12/02 01:01:53;;;;;;;19.53;10.00;;;6.70;99.90;;;;;;4944524;28;21036;-71
2020/12/02 01:04:20;;;;;;;20.87;10.57;;;6.70;99.90;;;;;;4951407;28;20448;-71
2020/12/02 01:06:48;;;;;;;22.43;10.87;;;6.70;99.90;;;;;;4960959;28;20220;-71
2020/12/02 01:09:15;;;;;;;16.43;10.70;;;6.70;99.90;;;;;;4965539;28;20473;-70
2020/12/02 01:11:42;;;;;;;18.70;11.27;;;6.60;99.90;;;;;;4960757;28;20485;-70
2020/12/02 01:14:11;;;;;;;18.20;11.23;;;6.60;99.90;;;;;;4954090;28;20468;-71
2020/12/02 01:16:45;;;;;;;16.30;11.33;;;6.60;99.90;;;;;;4967291;28;20483;-71
2020/12/02 01:19:13;;;;;;;16.90;10.63;;;6.60;99.90;;;;;;4957760;28;21028;-71
2020/12/02 01:21:51;;;;;;;25.73;11.07;;;6.60;99.90;;;;;;4966310;28;20485;-71
2020/12/02 01:24:26;;;;;;;22.60;10.97;;;6.60;99.90;;;;;;4961144;28;20551;-70
2020/12/02 01:27:00;;;;;;;24.77;11.10;;;6.60;99.90;;;;;;4965243;28;20595;-70
2020/12/02 01:29:25;;;;;;;19.90;11.47;;;6.60;99.90;;;;;;4962447;28;20980;-71
2020/12/02 01:31:55;;;;;;;16.83;11.83;;;6.60;99.90;;;;;;4961555;28;20487;-71
2020/12/02 01:34:23;;;;;;;22.40;13.20;;;6.50;99.90;;;;;;4959728;28;20455;-70
2020/12/02 01:37:07;;;;;;;20.83;13.40;;;6.50;99.90;;;;;;4959264;28;21065;-71
2020/12/02 01:39:41;;;;;;;20.37;13.67;;;6.60;99.90;;;;;;4947096;28;20543;-70
2020/12/02 01:42:11;;;;;;;22.77;14.53;;;6.50;99.90;;;;;;4952005;28;20455;-70
2020/12/02 01:44:37;;;;;;;30.20;14.83;;;6.50;99.90;;;;;;4946790;28;20519;-70
2020/12/02 01:47:57;;;;;;;21.83;15.20;;;6.40;99.90;;;;;;4946385;28;20452;-70
2020/12/02 01:50:50;;;;;;;22.90;14.40;;;6.40;99.90;;;;;;4908430;28;20493;-71
2020/12/02 01:53:19;;;;;;;24.30;14.57;;;6.40;99.90;;;;;;4948395;28;20915;-71
2020/12/02 01:55:54;;;;;;;23.40;15.33;;;6.40;99.90;;;;;;4952677;28;20816;-71
2020/12/02 01:58:47;;;;;;;27.37;17.13;;;6.40;99.90;;;;;;4952752;28;21177;-70
2020/12/02 02:01:37;;;;;;;24.40;14.53;;;6.30;99.90;;;;;;4951640;28;20456;-71
2020/12/02 02:04:06;;;;;;;28.17;15.13;;;6.30;99.90;;;;;;4949002;28;20770;-70
2020/12/02 02:07:00;;;;;;;28.90;17.93;;;6.30;99.90;;;;;;4946234;28;20452;-71
2020/12/02 02:09:26;;;;;;;27.90;15.80;;;6.30;99.90;;;;;;4954798;28;20564;-70
2020/12/02 02:12:13;;;;;;;22.87;14.87;;;6.30;99.90;;;;;;4957749;28;20472;-70
2020/12/02 02:15:07;;;;;;;27.50;17.37;;;6.30;99.90;;;;;;4949401;28;20460;-71
2020/12/02 02:17:33;;;;;;;29.40;16.70;;;6.30;99.90;;;;;;4950643;28;20475;-70
2020/12/02 02:19:59;;;;;;;27.43;15.63;;;6.40;99.90;;;;;;4949341;28;20445;-70
2020/12/02 02:22:25;;;;;;;27.70;15.80;;;6.40;99.90;;;;;;4949186;28;20565;-70
2020/12/02 02:24:53;;;;;;;25.20;14.90;;;6.40;99.90;;;;;;4947919;28;20791;-71
2020/12/02 02:27:22;;;;;;;26.47;16.50;;;6.50;99.90;;;;;;4951139;28;21073;-71
2020/12/02 02:29:48;;;;;;;23.60;14.67;;;6.50;99.90;;;;;;4951854;28;20467;-71
2020/12/02 02:32:26;;;;;;;26.43;15.17;;;6.50;99.90;;;;;;4949592;28;20905;-70
2020/12/02 02:34:56;;;;;;;28.23;15.57;;;6.50;99.90;;;;;;4947463;28;20299;-71
2020/12/02 02:37:25;;;;;;;26.20;14.67;;;6.50;99.90;;;;;;4952238;28;20865;-71
2020/12/02 02:39:52;;;;;;;30.03;16.53;;;6.50;99.90;;;;;;4950453;28;21226;-71
2020/12/02 02:42:30;;;;;;;32.00;16.30;;;6.50;99.90;;;;;;4950911;28;20455;-71
2020/12/02 02:44:57;;;;;;;25.90;15.03;;;6.50;99.90;;;;;;4929793;28;22411;-71
2020/12/02 02:47:23;;;;;;;25.50;15.70;;;6.50;99.90;;;;;;4916733;28;20445;-71
2020/12/02 02:49:50;;;;;;;27.37;15.97;;;6.60;99.90;;;;;;4945182;28;20543;-71
2020/12/02 02:52:16;;;;;;;26.73;15.23;;;6.60;99.90;;;;;;4952939;28;20479;-71
2020/12/02 02:54:41;;;;;;;26.27;14.67;;;6.50;99.90;;;;;;4954427;28;20472;-71
2020/12/02 02:57:07;;;;;;;24.20;14.63;;;6.50;99.90;;;;;;4951696;28;20455;-70
2020/12/02 02:59:33;;;;;;;23.80;15.27;;;6.50;99.90;;;;;;4955906;28;20474;-71
2020/12/02 03:01:59;;;;;;;25.43;13.90;;;6.60;99.90;;;;;;4954845;28;20320;-71
2020/12/02 03:04:24;;;;;;;28.50;16.13;;;6.60;99.90;;;;;;4954321;28;21553;-70
2020/12/02 03:06:50;;;;;;;27.50;15.50;;;6.60;99.90;;;;;;4950370;28;20674;-71
2020/12/02 03:09:16;;;;;;;26.13;15.70;;;6.50;99.90;;;;;;4951280;28;20371;-71
2020/12/02 03:11:42;;;;;;;26.20;14.30;;;6.60;99.90;;;;;;4964941;28;20696;-70
2020/12/02 03:14:10;;;;;;;27.67;15.73;;;6.60;99.90;;;;;;4965381;28;20468;-71
2020/12/02 03:16:45;;;;;;;28.23;14.57;;;6.60;99.90;;;;;;4966730;28;20460;-71
2020/12/02 03:19:20;;;;;;;29.00;14.50;;;6.60;99.90;;;;;;4962644;28;20439;-71
2020/12/02 03:21:48;;;;;;;30.97;16.00;;;6.60;99.90;;;;;;4965090;28;20477;-71
2020/12/02 03:24:14;;;;;;;23.03;15.50;;;6.50;99.90;;;;;;4966828;28;20456;-71
2020/12/02 03:26:40;;;;;;;35.50;14.90;;;6.60;99.90;;;;;;4967050;28;20454;-71
2020/12/02 03:29:07;;;;;;;23.60;14.80;;;6.60;99.90;;;;;;4964043;28;20466;-70
2020/12/02 03:31:34;;;;;;;26.40;14.47;;;6.60;99.90;;;;;;4966059;28;20211;-70
2020/12/02 03:33:59;;;;;;;28.73;15.17;;;6.50;99.90;;;;;;4957846;28;20766;-70
2020/12/02 03:36:25;;;;;;;27.87;15.40;;;6.50;99.90;;;;;;4950576;28;20503;-70
2020/12/02 03:38:51;;;;;;;29.00;14.93;;;6.60;99.90;;;;;;4960573;28;20239;-70
2020/12/02 03:41:18;;;;;;;27.17;16.60;;;6.50;99.90;;;;;;4965192;28;20197;-71
2020/12/02 03:43:44;;;;;;;32.33;16.17;;;6.50;99.90;;;;;;4964179;28;20209;-70
2020/12/02 03:46:09;;;;;;;31.27;15.90;;;6.50;99.90;;;;;;4965439;28;20455;-71
2020/12/02 03:48:35;;;;;;;28.00;16.00;;;6.40;99.90;;;;;;4964125;28;20471;-70
2020/12/02 03:51:01;;;;;;;27.93;16.37;;;6.40;99.90;;;;;;4956103;28;20267;-71
2020/12/02 03:53:27;;;;;;;27.23;16.60;;;6.30;99.90;;;;;;4954054;28;20333;-71
2020/12/02 03:55:52;;;;;;;33.07;17.07;;;6.30;99.90;;;;;;4942360;28;20934;-70
2020/12/02 03:58:19;;;;;;;30.43;16.87;;;6.30;99.90;;;;;;4945841;28;20189;-70
2020/12/02 04:00:45;;;;;;;37.60;16.40;;;6.20;99.90;;;;;;4952303;28;20256;-70
2020/12/02 04:03:11;;;;;;;32.37;16.23;;;6.30;99.90;;;;;;4949976;28;20979;-71
2020/12/02 04:05:37;;;;;;;30.97;17.43;;;6.30;99.90;;;;;;4952516;28;20963;-71
2020/12/02 04:08:03;;;;;;;31.90;18.00;;;6.30;99.90;;;;;;4950456;28;20546;-70
2020/12/02 04:10:29;;;;;;;52.60;19.30;;;6.30;99.90;;;;;;4942400;28;20197;-71
2020/12/02 04:12:55;;;;;;;84.53;21.30;;;6.20;99.90;;;;;;4941960;28;20756;-70
2020/12/02 04:15:22;;;;;;;40.87;17.70;;;6.10;99.90;;;;;;4946198;28;20236;-70
2020/12/02 04:17:49;;;;;;;36.57;16.57;;;6.10;99.90;;;;;;4953281;28;20468;-70
2020/12/02 04:20:18;;;;;;;29.20;15.83;;;6.00;99.90;;;;;;4950893;28;20463;-70
2020/12/02 04:22:45;;;;;;;34.37;16.60;;;6.00;99.90;;;;;;4957639;28;20861;-71
2020/12/02 04:25:12;;;;;;;26.80;14.30;;;6.00;99.90;;;;;;4952285;28;20478;-70
2020/12/02 04:27:37;;;;;;;24.87;13.97;;;6.10;99.90;;;;;;4953338;28;20444;-71
2020/12/02 04:30:05;;;;;;;25.20;13.47;;;6.00;99.90;;;;;;4952110;28;20990;-71
2020/12/02 04:32:30;;;;;;;24.43;13.17;;;6.00;99.90;;;;;;4942220;28;21596;-70
2020/12/02 04:35:01;;;;;;;25.00;13.53;;;6.00;99.90;;;;;;4951905;28;20452;-70
2020/12/02 04:37:30;;;;;;;25.70;13.53;;;5.90;99.90;;;;;;4951907;28;20201;-70
2020/12/02 04:39:57;;;;;;;24.30;13.00;;;5.90;99.90;;;;;;4959974;28;20445;-71
2020/12/02 04:42:30;;;;;;;23.70;13.00;;;5.90;99.90;;;;;;4956546;28;20445;-71
2020/12/02 04:44:58;;;;;;;37.27;14.30;;;5.90;99.90;;;;;;4957533;28;20486;-71
2020/12/02 04:47:36;;;;;;;32.97;14.20;;;5.90;99.90;;;;;;4961452;28;20524;-71
2020/12/02 04:50:04;;;;;;;25.97;14.20;;;5.90;99.90;;;;;;4956717;28;22372;-71
2020/12/02 04:52:30;;;;;;;28.97;14.47;;;5.90;99.90;;;;;;4965646;28;20463;-71
2020/12/02 04:54:56;;;;;;;35.73;14.20;;;5.90;99.90;;;;;;4974253;28;20475;-71
2020/12/02 04:57:21;;;;;;;30.57;12.77;;;5.90;99.90;;;;;;4961938;28;20190;-70
2020/12/02 04:59:47;;;;;;;25.77;13.50;;;5.90;99.90;;;;;;4961826;28;20575;-71
2020/12/02 05:02:26;;;;;;;29.20;14.07;;;5.90;99.90;;;;;;4964697;28;20842;-71
2020/12/02 05:04:54;;;;;;;23.33;14.53;;;5.90;99.90;;;;;;4959978;28;20267;-71
2020/12/02 05:07:20;;;;;;;25.23;12.83;;;6.00;99.90;;;;;;4964658;28;20477;-71
2020/12/02 05:10:06;;;;;;;22.13;12.40;;;6.00;99.90;;;;;;4954466;28;20503;-70
2020/12/02 05:12:38;;;;;;;28.20;14.03;;;6.00;99.90;;;;;;4953747;28;20474;-71
2020/12/02 05:15:34;;;;;;;25.03;12.60;;;6.10;99.90;;;;;;4942270;28;20590;-71
2020/12/02 05:18:03;;;;;;;26.80;13.60;;;6.10;99.90;;;;;;4957819;28;20504;-70
2020/12/02 05:20:29;;;;;;;23.13;13.33;;;6.10;99.90;;;;;;4957751;28;20456;-71
2020/12/02 05:22:54;;;;;;;29.40;14.90;;;6.20;99.90;;;;;;4955823;28;20942;-71
2020/12/02 05:25:30;;;;;;;23.87;13.23;;;6.20;99.90;;;;;;4950256;28;20441;-70
2020/12/02 05:28:26;;;;;;;27.80;14.33;;;6.20;99.90;;;;;;4953135;28;20548;-71
2020/12/02 05:31:03;;;;;;;24.27;11.97;;;6.10;99.90;;;;;;4948170;28;20471;-71
2020/12/02 05:33:31;;;;;;;30.90;15.10;;;6.10;99.90;;;;;;4950520;28;20510;-72
2020/12/02 05:36:20;;;;;;;25.10;13.23;;;6.10;99.90;;;;;;4942031;28;20661;-71
2020/12/02 05:39:28;;;;;;;27.07;14.93;;;6.00;99.90;;;;;;4952856;28;20453;-71
2020/12/02 05:41:55;;;;;;;23.33;12.97;;;6.00;99.90;;;;;;4944219;28;20460;-72
2020/12/02 05:44:34;;;;;;;30.87;13.70;;;5.90;99.90;;;;;;4944903;28;20479;-71
2020/12/02 05:47:05;;;;;;;23.40;12.50;;;5.90;99.90;;;;;;4938214;28;20554;-71
2020/12/02 05:50:13;;;;;;;27.83;14.33;;;5.80;99.90;;;;;;4943512;28;20814;-71
2020/12/02 05:52:41;;;;;;;25.80;13.63;;;5.80;99.90;;;;;;4923891;28;20496;-72
2020/12/02 05:55:16;;;;;;;23.00;12.87;;;5.80;99.90;;;;;;4951015;28;20456;-72
2020/12/02 05:57:58;;;;;;;21.80;13.40;;;5.80;99.90;;;;;;4940101;28;20842;-72
2020/12/02 06:00:29;;;;;;;25.40;13.20;;;5.90;99.90;;;;;;4953718;28;20462;-72
2020/12/02 06:02:56;;;;;;;21.57;11.87;;;5.90;99.90;;;;;;4949946;28;21003;-72
2020/12/02 06:05:23;;;;;;;21.87;12.63;;;5.90;99.90;;;;;;4953963;28;20445;-72
2020/12/02 06:07:51;;;;;;;25.77;13.63;;;5.90;99.90;;;;;;4950811;28;20447;-72
2020/12/02 06:10:49;;;;;;;30.03;14.90;;;5.90;99.90;;;;;;4952661;28;20507;-72
2020/12/02 06:13:35;;;;;;;26.83;14.10;;;5.80;99.90;;;;;;4939345;28;20580;-72
2020/12/02 06:16:01;;;;;;;27.47;14.23;;;5.80;99.90;;;;;;4954867;28;20478;-72
2020/12/02 06:18:29;;;;;;;27.57;13.20;;;5.80;99.90;;;;;;4961108;28;20440;-73
2020/12/02 06:20:55;;;;;;;28.00;16.00;;;5.80;99.90;;;;;;4963271;28;20196;-72
2020/12/02 06:23:35;;;;;;;25.80;13.70;;;5.70;99.90;;;;;;4961579;28;20456;-72
2020/12/02 06:26:00;;;;;;;27.77;14.53;;;5.80;99.90;;;;;;4960613;28;20194;-72
2020/12/02 06:28:29;;;;;;;26.60;14.60;;;5.80;99.90;;;;;;4962000;28;21306;-72
2020/12/02 06:31:07;;;;;;;21.00;12.60;;;5.80;99.90;;;;;;4961320;28;20735;-72
2020/12/02 06:33:38;;;;;;;24.00;11.93;;;5.70;99.90;;;;;;4950141;28;21091;-72
2020/12/02 06:36:25;;;;;;;20.57;12.07;;;5.70;99.90;;;;;;4949191;28;20986;-72
2020/12/02 06:38:54;;;;;;;19.17;10.40;;;5.70;99.90;;;;;;4952083;28;20460;-73
2020/12/02 06:41:38;;;;;;;24.53;11.70;;;5.70;99.90;;;;;;4950018;28;21673;-72
2020/12/02 06:44:13;;;;;;;17.63;10.00;;;5.70;99.90;;;;;;4950803;28;20473;-72
2020/12/02 06:46:41;;;;;;;19.53;11.23;;;5.70;99.90;;;;;;4940331;28;20445;-72
2020/12/02 06:49:09;;;;;;;23.93;11.83;;;5.70;99.90;;;;;;4952457;28;20449;-72
2020/12/02 06:51:35;;;;;;;18.67;11.57;;;5.70;99.90;;;;;;4950346;28;20567;-72
2020/12/02 06:54:01;;;;;;;17.60;9.97;;;5.70;99.90;;;;;;4950471;28;20453;-72
2020/12/02 06:56:27;;;;;;;21.73;11.13;;;5.80;99.90;;;;;;4950670;28;20650;-72
2020/12/02 06:59:06;;;;;;;19.73;11.63;;;5.80;99.90;;;;;;4956166;28;20705;-72
2020/12/02 07:01:34;;;;;;;26.37;10.70;;;5.70;99.90;;;;;;4955508;28;20937;-72
2020/12/02 07:04:05;;;;;;;18.17;11.20;;;5.70;99.90;;;;;;4954498;28;20955;-72
2020/12/02 07:06:32;;;;;;;15.67;10.10;;;5.70;99.90;;;;;;4952239;28;20914;-72
2020/12/02 07:09:16;;;;;;;17.00;11.17;;;5.70;99.90;;;;;;4955157;28;20464;-72
2020/12/02 07:12:03;;;;;;;18.47;10.83;;;5.80;99.90;;;;;;4953884;28;20471;-72
2020/12/02 07:14:39;;;;;;;17.27;11.20;;;5.70;99.90;;;;;;4942693;28;20766;-72
2020/12/02 07:17:14;;;;;;;17.63;11.00;;;5.70;99.90;;;;;;4951718;28;20487;-72
2020/12/02 07:19:44;;;;;;;18.20;11.53;;;5.60;99.90;;;;;;4951577;28;20451;-72
2020/12/02 07:22:17;;;;;;;19.53;11.90;;;5.60;99.90;;;;;;4966611;28;20551;-72
2020/12/02 07:24:47;;;;;;;21.47;11.97;;;5.60;99.90;;;;;;4956695;28;20981;-72
2020/12/02 07:27:14;;;;;;;20.27;11.77;;;5.70;99.90;;;;;;4951083;28;20465;-72
2020/12/02 07:29:39;;;;;;;19.07;12.00;;;5.70;99.90;;;;;;4952054;28;20480;-72
2020/12/02 07:32:11;;;;;;;19.90;11.97;;;5.60;99.90;;;;;;4959767;28;20535;-73
2020/12/02 07:34:36;;;;;;;23.77;12.17;;;5.60;99.90;;;;;;4958006;28;20784;-72
2020/12/02 07:37:19;;;;;;;17.97;11.77;;;5.60;99.90;;;;;;4957216;28;20470;-72
2020/12/02 07:39:50;;;;;;;17.80;10.83;;;5.60;99.90;;;;;;4956999;28;20186;-72
2020/12/02 07:42:39;;;;;;;18.80;12.57;;;5.60;99.90;;;;;;4959978;28;20449;-72
2020/12/02 07:45:12;;;;;;;25.60;13.30;;;5.50;99.90;;;;;;4957351;28;20497;-72
2020/12/02 07:47:40;;;;;;;22.70;12.40;;;5.50;99.90;;;;;;4955526;28;20844;-72
2020/12/02 07:50:27;;;;;;;22.23;13.90;;;5.40;99.90;;;;;;4957308;28;20538;-72
2020/12/02 07:52:59;;;;;;;24.50;12.60;;;5.50;99.90;;;;;;4956450;28;20792;-73
2020/12/02 07:55:44;;;;;;;26.93;13.13;;;5.40;99.90;;;;;;4948297;28;20941;-72
2020/12/02 07:58:37;;;;;;;21.87;12.50;;;5.30;99.90;;;;;;4943658;28;20443;-72
2020/12/02 08:01:22;;;;;;;21.40;11.50;;;5.40;99.90;;;;;;4960369;28;20574;-70
2020/12/02 08:03:48;;;;;;;30.77;13.47;;;5.50;99.90;;;;;;4942513;28;21175;-71
2020/12/02 08:06:32;;;;;;;28.53;13.10;;;5.40;99.90;;;;;;4953463;28;20575;-70
2020/12/02 08:08:57;;;;;;;30.33;14.97;;;5.40;99.90;;;;;;4946033;28;21238;-70
2020/12/02 08:11:24;;;;;;;22.17;13.20;;;5.40;99.90;;;;;;4946317;28;20524;-71
2020/12/02 08:13:55;;;;;;;25.17;12.80;;;5.40;99.90;;;;;;4956411;28;20209;-71
2020/12/02 08:16:26;;;;;;;26.87;15.20;;;5.40;99.90;;;;;;4957079;28;20471;-70
2020/12/02 08:18:54;;;;;;;25.13;13.77;;;5.40;99.90;;;;;;4958681;28;20535;-70
2020/12/02 08:21:23;;;;;;;19.67;12.80;;;5.40;99.90;;;;;;4954091;28;21426;-71
2020/12/02 08:24:02;;;;;;;22.20;13.63;;;5.40;99.90;;;;;;4959337;28;20479;-71
2020/12/02 08:26:29;;;;;;;20.30;11.37;;;5.50;99.90;;;;;;4956927;28;20489;-71
2020/12/02 08:29:03;;;;;;;22.00;13.80;;;5.40;99.90;;;;;;4955547;28;20938;-71
2020/12/02 08:31:31;;;;;;;22.53;13.33;;;5.50;99.90;;;;;;4955861;28;21020;-71
2020/12/02 08:34:11;;;;;;;25.63;14.73;;;5.50;99.90;;;;;;4956343;28;20451;-71
2020/12/02 08:36:40;;;;;;;22.47;13.70;;;5.40;99.90;;;;;;4954041;28;21018;-71
2020/12/02 08:39:08;;;;;;;26.17;13.90;;;5.40;99.90;;;;;;4958289;28;20452;-71
2020/12/02 08:41:48;;;;;;;22.97;13.53;;;5.50;99.90;;;;;;4953011;28;20467;-71
2020/12/02 08:44:16;;;;;;;20.17;12.93;;;5.50;99.90;;;;;;4938882;28;20461;-71
2020/12/02 08:47:02;;;;;;;23.70;13.80;;;5.60;99.90;;;;;;4931582;28;20457;-71
2020/12/02 08:49:32;;;;;;;24.70;13.63;;;5.60;99.90;;;;;;4945241;28;20448;-71
2020/12/02 08:51:58;;;;;;;25.23;12.97;;;5.60;99.90;;;;;;4952264;28;21278;-71
2020/12/02 08:54:25;;;;;;;19.83;11.57;;;5.60;99.90;;;;;;4948128;28;20444;-71
2020/12/02 08:57:00;;;;;;;21.47;12.30;;;5.60;99.90;;;;;;4947030;28;20306;-72
2020/12/02 08:59:25;;;;;;;18.70;12.00;;;5.60;99.90;;;;;;4946414;28;20531;-71
2020/12/02 09:01:51;;;;;;;21.73;13.37;;;5.70;99.90;;;;;;4944165;28;20611;-71
2020/12/02 09:04:16;;;;;;;20.07;11.00;;;5.60;99.90;;;;;;4948666;28;20594;-71
2020/12/02 09:06:42;;;;;;;24.27;14.20;;;5.70;99.90;;;;;;4942789;28;20791;-71
2020/12/02 09:09:08;;;;;;;22.90;12.63;;;5.70;99.90;;;;;;4944998;28;20202;-71
2020/12/02 09:11:37;;;;;;;22.87;12.57;;;5.80;99.90;;;;;;4941382;28;20683;-71
2020/12/02 09:14:05;;;;;;;20.87;13.40;;;5.90;99.90;;;;;;4944193;28;20815;-71
2020/12/02 09:16:34;;;;;;;22.90;12.27;;;5.80;99.90;;;;;;4953468;28;20472;-71
2020/12/02 09:19:00;;;;;;;24.60;14.57;;;5.80;99.90;;;;;;4955759;28;20444;-71
2020/12/02 09:21:28;;;;;;;25.90;14.87;;;5.80;99.90;;;;;;4954964;28;20809;-71
2020/12/02 09:23:55;;;;;;;29.93;15.37;;;5.80;99.90;;;;;;4955940;28;20448;-71
2020/12/02 09:26:22;;;;;;;26.40;14.60;;;5.80;99.90;;;;;;4946389;28;20460;-71
2020/12/02 09:28:50;;;;;;;25.87;15.30;;;5.80;99.90;;;;;;4941484;28;21106;-71
2020/12/02 09:31:18;;;;;;;23.03;14.10;;;5.80;99.90;;;;;;4947649;28;20912;-71
2020/12/02 09:33:45;;;;;;;28.70;14.47;;;5.80;99.90;;;;;;4954314;28;20556;-70
2020/12/02 09:36:12;;;;;;;24.93;14.90;;;5.80;99.90;;;;;;4956318;28;20842;-71
2020/12/02 09:38:38;;;;;;;26.20;14.57;;;5.90;99.90;;;;;;4943281;28;20445;-71
2020/12/02 09:41:31;;;;;;;23.87;14.80;;;5.90;99.90;;;;;;4948683;28;20441;-71
2020/12/02 09:44:27;;;;;;;21.07;12.93;;;5.90;99.90;;;;;;4932461;28;20523;-71
2020/12/02 09:47:03;;;;;;;20.13;13.57;;;5.90;99.90;;;;;;4947177;28;20485;-71
2020/12/02 09:49:31;;;;;;;24.97;14.07;;;5.90;99.90;;;;;;4944075;28;20464;-71
2020/12/02 09:52:35;;;;;;;24.17;13.70;;;5.90;99.90;;;;;;4942220;28;20479;-71
2020/12/02 09:55:07;;;;;;;21.63;12.83;;;6.00;99.90;;;;;;4952543;28;20457;-72
2020/12/02 09:57:33;;;;;;;27.30;15.50;;;5.90;99.90;;;;;;4948390;28;20444;-71
2020/12/02 10:00:00;;;;;;;28.57;15.47;;;6.00;99.90;;;;;;4941426;28;20492;-71
2020/12/02 10:02:56;;;;;;;23.43;14.20;;;6.00;99.90;;;;;;4953868;28;20302;-71
2020/12/02 10:05:51;;;;;;;27.93;13.87;;;6.00;99.90;;;;;;4955385;28;20466;-71
2020/12/02 10:08:46;;;;;;;25.87;14.37;;;6.00;99.90;;;;;;4963184;28;20525;-71
2020/12/02 10:11:12;;;;;;;22.80;14.73;;;5.90;99.90;;;;;;4956937;28;20479;-71
2020/12/02 10:13:47;;;;;;;23.00;14.07;;;5.90;99.90;;;;;;4957382;28;20805;-71
2020/12/02 10:16:24;;;;;;;23.27;14.10;;;6.00;99.90;;;;;;4954037;28;20212;-71
2020/12/02 10:19:18;;;;;;;20.80;13.13;;;6.00;99.90;;;;;;4953358;28;20441;-71
2020/12/02 10:22:07;;;;;;;24.47;13.10;;;5.90;99.90;;;;;;4953127;28;20460;-71
2020/12/02 10:25:04;;;;;;;25.10;14.90;;;6.10;99.90;;;;;;4955304;28;21762;-71
2020/12/02 10:28:04;;;;;;;19.40;12.63;;;6.20;99.90;;;;;;4952671;28;20448;-71
2020/12/02 10:30:32;;;;;;;20.97;11.30;;;6.30;99.90;;;;;;4937227;28;21028;-72
2020/12/02 10:33:05;;;;;;;21.73;11.87;;;6.20;99.90;;;;;;4956581;28;20483;-71
2020/12/02 10:35:34;;;;;;;23.30;12.40;;;6.10;99.90;;;;;;4953268;28;25043;-71
2020/12/02 10:38:06;;;;;;;16.73;11.50;;;6.20;99.90;;;;;;4952829;28;20448;-71
2020/12/02 10:40:40;;;;;;;16.53;10.70;;;6.20;99.90;;;;;;4954238;28;20876;-71
2020/12/02 10:43:28;;;;;;;19.67;12.33;;;6.00;99.90;;;;;;4953552;28;20911;-71
2020/12/02 10:45:59;;;;;;;20.03;11.20;;;6.20;99.90;;;;;;4953082;28;20947;-72
2020/12/02 10:49:03;;;;;;;20.33;11.10;;;6.20;99.90;;;;;;4957367;28;20447;-71
2020/12/02 10:51:36;;;;;;;22.33;12.70;;;6.10;99.90;;;;;;4950923;28;20464;-72
2020/12/02 10:54:11;;;;;;;26.10;15.67;;;6.20;99.90;;;;;;4952280;28;20443;-72
2020/12/02 10:56:37;;;;;;;19.27;11.73;;;6.30;99.90;;;;;;4951632;28;20438;-71
2020/12/02 10:59:03;;;;;;;14.17;9.17;;;6.40;99.90;;;;;;4955891;28;20455;-72
2020/12/02 11:01:28;;;;;;;14.57;9.30;;;6.20;99.90;;;;;;4953571;28;20515;-72
2020/12/02 11:03:57;;;;;;;17.40;11.20;;;6.20;99.90;;;;;;4960314;28;20237;-71
2020/12/02 11:06:26;;;;;;;19.80;12.73;;;6.30;99.90;;;;;;4958030;28;20575;-72
2020/12/02 11:09:06;;;;;;;19.17;11.80;;;6.40;99.90;;;;;;4953238;28;21195;-71
2020/12/02 11:11:59;;;;;;;18.93;11.93;;;6.50;99.90;;;;;;4944703;28;21455;-72
2020/12/02 11:14:47;;;;;;;18.97;13.30;;;6.50;99.90;;;;;;4940770;28;22283;-71
2020/12/02 11:17:37;;;;;;;19.60;11.30;;;6.50;99.90;;;;;;4956590;28;20811;-71
2020/12/02 11:20:07;;;;;;;17.60;12.67;;;6.50;99.90;;;;;;4949501;28;20696;-71
2020/12/02 11:22:59;;;;;;;17.20;11.13;;;6.50;99.90;;;;;;4950126;28;20472;-71
2020/12/02 11:25:30;;;;;;;16.80;10.40;;;6.50;99.90;;;;;;4953476;28;20448;-71
2020/12/02 11:27:56;;;;;;;19.90;12.13;;;6.50;99.90;;;;;;4947794;28;20940;-71
2020/12/02 11:30:31;;;;;;;16.63;11.17;;;6.40;99.90;;;;;;4952688;28;20478;-71
2020/12/02 11:33:31;;;;;;;17.47;11.50;;;6.50;99.90;;;;;;4963104;28;20219;-71
2020/12/02 11:36:38;;;;;;;15.07;10.40;;;6.50;99.90;;;;;;4946203;28;20449;-71
2020/12/02 11:39:10;;;;;;;17.50;11.67;;;6.50;99.90;;;;;;4956917;28;20438;-71
2020/12/02 11:41:48;;;;;;;18.07;11.73;;;6.50;99.90;;;;;;4956357;28;20840;-71
2020/12/02 11:44:42;;;;;;;17.13;11.20;;;6.50;99.90;;;;;;4953725;28;20452;-71
2020/12/02 11:47:21;;;;;;;15.13;9.70;;;6.50;99.90;;;;;;4952494;28;20467;-71
2020/12/02 11:49:54;;;;;;;10.87;6.97;;;6.30;99.90;;;;;;4955302;28;21036;-72
2020/12/02 11:52:53;;;;;;;6.87;5.10;;;6.20;99.90;;;;;;4957810;28;20469;-71
2020/12/02 11:55:19;;;;;;;8.43;4.60;;;6.10;99.90;;;;;;4950001;28;20452;-72
2020/12/02 11:57:51;;;;;;;6.37;4.30;;;5.90;99.90;;;;;;4943892;28;20456;-71
2020/12/02 12:00:17;;;;;;;5.30;4.03;;;5.90;99.90;;;;;;4949267;28;20970;-72
2020/12/02 12:03:03;;;;;;;6.87;4.60;;;5.80;99.90;;;;;;4956621;28;20440;-71
2020/12/02 12:05:39;;;;;;;7.70;4.50;;;5.80;99.90;;;;;;4957858;28;20466;-71
2020/12/02 12:08:36;;;;;;;4.70;4.23;;;5.80;99.90;;;;;;4953804;28;20452;-71
2020/12/02 12:11:08;;;;;;;6.80;4.80;;;5.80;99.90;;;;;;4927983;28;21992;-71
2020/12/02 12:13:43;;;;;;;4.70;4.20;;;5.80;99.90;;;;;;4944969;28;20882;-71
2020/12/02 12:16:28;;;;;;;9.73;4.23;;;5.80;99.90;;;;;;4942951;28;20463;-71
2020/12/02 12:19:20;;;;;;;7.07;5.20;;;5.80;99.90;;;;;;4937562;28;21289;-71
2020/12/02 12:22:23;;;;;;;6.33;4.50;;;5.90;99.90;;;;;;4948629;28;20452;-71
2020/12/02 12:24:49;;;;;;;7.60;4.40;;;5.90;99.90;;;;;;4941451;28;21027;-70
2020/12/02 12:27:20;;;;;;;5.33;4.63;;;5.80;99.90;;;;;;4940033;28;20455;-70
2020/12/02 12:29:46;;;;;;;8.27;4.60;;;5.70;99.90;;;;;;4952127;28;23671;-70
2020/12/02 12:32:32;;;;;;;7.03;4.70;;;5.70;99.90;;;;;;4945120;28;20550;-71
2020/12/02 12:35:12;;;;;;;6.03;4.43;;;5.70;99.90;;;;;;4941799;28;20690;-71
2020/12/02 12:37:58;;;;;;;7.30;5.40;;;5.70;99.90;;;;;;4945018;28;20443;-71
2020/12/02 12:40:29;;;;;;;5.90;4.73;;;5.60;99.90;;;;;;4945464;28;20970;-71
2020/12/02 12:42:57;;;;;;;7.23;5.23;;;5.50;99.90;;;;;;4948327;28;21056;-71
2020/12/02 12:45:34;;;;;;;7.50;5.10;;;5.40;99.90;;;;;;4947582;28;20526;-71
2020/12/02 12:48:01;;;;;;;7.80;5.30;;;5.40;99.90;;;;;;4951605;28;20440;-70
2020/12/02 12:50:27;;;;;;;7.40;4.80;;;5.40;99.90;;;;;;4943679;28;20467;-70
2020/12/02 12:52:53;;;;;;;6.30;5.20;;;5.30;99.90;;;;;;4942639;28;20576;-71
2020/12/02 12:55:20;;;;;;;9.23;6.10;;;5.20;99.90;;;;;;4946247;28;20864;-71
2020/12/02 12:57:50;;;;;;;7.00;5.97;;;5.20;99.90;;;;;;4958142;28;20494;-71
2020/12/02 13:00:17;;;;;;;8.53;5.60;;;5.20;99.90;;;;;;4939205;28;20759;-71
2020/12/02 13:02:43;;;;;;;7.67;6.00;;;5.20;99.90;;;;;;4944773;28;20579;-71
2020/12/02 13:05:13;;;;;;;9.47;5.80;;;5.20;99.90;;;;;;4934962;28;20456;-71
2020/12/02 13:07:41;;;;;;;7.97;6.33;;;5.20;99.90;;;;;;4939781;28;20271;-71
2020/12/02 13:10:11;;;;;;;7.13;6.17;;;5.10;99.90;;;;;;4943575;28;20469;-71